Huvudsida
METAR-TAF:

METAR-TAF

Flygplatser :

Kairos internationella flygplats

Kairo, Egypten

latitud: 30-08N, longitud: 031-24E, höjd: 64 m

Aktuellt väderrapport

Denna rapport gjordes för 19 minuter sedan, klockan 15:30 UTC
Vind 6 kt från nord/nordväst
Temperatur 43°C
Fuktighet 9%
Tryck 1010 hPa
Sikt 10 km eller mer
Inga moln under 1 500 m eller inga cumulonimbus

METAR: HECA 221530Z 33006KT CAVOK 43/03 Q1010 NOSIG

Tid: 17:49 (15:49 UTC)

Väderprognos

Denna rapport gjordes för 4 timmar och 49 minuter sedan, klockan 11:00 UTC
Prognos gäller från 22 kl. 12 UTC till 23 kl. 18 UTC
Vind 10 kt från nord
Sikt 10 km eller mer
Inga moln under 1 500 m eller inga cumulonimbus

TAF: HECA 221100Z 2212/2318 36010KT CAVOK

Aktuella väderrapporter och prognoser från 4000 flygplatser (METAR- och TAF-rapporter).

De tillgängliga stationerna syns som gula och röda prickar på kartan.

För musen över prickarna för att se namnen på stationerna.

Klicka sedan för att få väderrapporter och prognoser.

För att ändra kartan: Klicka på de gröna knapparna med ett svart kors på för att zooma in; den gröna knappen med ett streck på för att zooma ut; eller på de gröna pilarna för angränsande kartor.


METAR-TAF: